Terminal Aerodrome Forecast
Issued by NWS Chicago, IL

Home | Current Version | Previous Version | Text Only | Print | Product List | Glossary Off
Versions: 1 2 3 4 5 6 7 8 9 10 11 12 13 14 15 16 17 18 19 20 21 22 23 24 25 26 27 28 29 30

917
FTUS43 KLOT 191728
TAFRFD
TAF
KRFD 191728Z 1918/2018 18004KT P6SM BKN022
     FM192200 08008KT P6SM SCT040 SCT250
     FM200500 14006KT P6SM SCT100 BKN250 PROB30 2006/2012 33020G30KT
      2SM TSRA SCT020 OVC060CB
     FM201200 20010KT P6SM VCSH SCT040 BKN250=

USA.gov is the U.S. government's official web portal to all federal, state and local government web resources and services.